Baltic Marshall — C4KD2 — position and weather

sailwx.info

Track history (hours):
 
Tides and Currents Weather Stations Pressure Air Temp Water Temp Dewpoint Dewpoint Depression Visibility Wind Speed Wind Dir Waves Ship Positions

Baltic Marshall

Last reported at 2016-Jun-27 05:22 UTC. Time now 2016-Jun-29 02:08 UTC.
Position N 35°49' E 014°33'.

Length 183 m; draft 6.8 m.

Type: Ship. MMSI: 212118000.

Date/timePositionNaut miles runAvg speedWind from/ knotsBaromVisibWave heightAir tempDewpointWater temp
2016-Jun-27 05:22N 35°49' E 014°33'0 0.4
2016-Jun-27 04:33N 35°49' E 014°33'5 5.2
2016-Jun-27 03:33N 35°49' E 014°39'1110.9
2016-Jun-27 02:33N 35°55' E 014°51'0 0.3
2016-Jun-27 01:33N 35°55' E 014°51'0 0.0
2016-Jun-27 00:33N 35°55' E 014°51'0 0.0
2016-Jun-26 23:33N 35°55' E 014°51'0 0.0
2016-Jun-26 22:33N 35°55' E 014°51'0 0.0
2016-Jun-26 21:33N 35°55' E 014°51'0 0.1
2016-Jun-26 20:33N 35°55' E 014°51'0 0.1
2016-Jun-26 19:33N 35°55' E 014°51'0 0.0
2016-Jun-26 18:33N 35°55' E 014°51'0 0.0
2016-Jun-26 17:33N 35°55' E 014°51'0 0.0
2016-Jun-26 16:33N 35°55' E 014°51'0 0.0
2016-Jun-26 15:33N 35°55' E 014°51'0 0.0
2016-Jun-26 14:33N 35°55' E 014°51'0 0.0
2016-Jun-26 13:33N 35°55' E 014°51'0 0.0
2016-Jun-26 12:33N 35°55' E 014°51'0 0.0
2016-Jun-26 11:33N 35°55' E 014°51'0 0.0
2016-Jun-26 10:33N 35°55' E 014°51'0 0.0
2016-Jun-26 09:33N 35°55' E 014°51'0 0.0
2016-Jun-26 08:33N 35°55' E 014°51'0 0.0
2016-Jun-26 07:33N 35°55' E 014°51'0 0.0
2016-Jun-26 06:33N 35°55' E 014°51'0 0.0
2016-Jun-26 05:33N 35°55' E 014°51'0 0.0
2016-Jun-26 04:33N 35°55' E 014°51'0 0.0
2016-Jun-26 03:33N 35°55' E 014°51'0 0.0
2016-Jun-26 02:33N 35°55' E 014°51'0 0.0
2016-Jun-26 01:30N 35°55' E 014°51'0 0.0
2016-Jun-26 00:30N 35°55' E 014°51'0 0.0
2016-Jun-25 23:30N 35°55' E 014°51'0 0.0
2016-Jun-25 22:33N 35°55' E 014°51'0 0.0
2016-Jun-25 21:30N 35°55' E 014°51'0 0.0
2016-Jun-25 20:33N 35°55' E 014°51'0 0.0
2016-Jun-25 19:33N 35°55' E 014°51'0 0.0
2016-Jun-25 18:33N 35°55' E 014°51'0 0.0
2016-Jun-25 17:30N 35°55' E 014°51'0 0.0
2016-Jun-25 16:33N 35°55' E 014°51'0 0.0
2016-Jun-25 15:33N 35°55' E 014°51'0 0.0
2016-Jun-25 14:33N 35°55' E 014°51'0 0.0
2016-Jun-25 13:33N 35°55' E 014°51'0 0.0
2016-Jun-25 12:33N 35°55' E 014°51'0 0.1
2016-Jun-25 11:30N 35°55' E 014°51'0 0.0
2016-Jun-25 10:27N 35°55' E 014°51'0 0.0
2016-Jun-25 09:33N 35°55' E 014°51'0 0.1
2016-Jun-25 08:33N 35°55' E 014°51'0 0.0
2016-Jun-25 07:27N 35°55' E 014°51'0 0.0
2016-Jun-25 06:33N 35°55' E 014°51'0 0.0
2016-Jun-25 04:33N 35°55' E 014°51'0 0.0
2016-Jun-25 03:33N 35°55' E 014°51'0 0.0
2016-Jun-25 02:33N 35°55' E 014°51'0 0.0
2016-Jun-25 01:33N 35°55' E 014°51'0 0.0
2016-Jun-25 00:33N 35°55' E 014°51'0 0.0
2016-Jun-24 23:33N 35°55' E 014°51'0 0.0
2016-Jun-24 22:33N 35°55' E 014°51'0 0.0
2016-Jun-24 21:33N 35°55' E 014°51'0 0.0
2016-Jun-24 20:21N 35°55' E 014°51'0 0.0
2016-Jun-24 19:33N 35°55' E 014°51'0 0.0
2016-Jun-24 18:33N 35°55' E 014°51'0 0.0
2016-Jun-24 17:30N 35°54' E 014°51'0 0.0
2016-Jun-24 16:30N 35°55' E 014°51'0 0.0
2016-Jun-24 15:33N 35°55' E 014°51'0 0.0
2016-Jun-24 14:33N 35°55' E 014°51'0 0.0
2016-Jun-24 13:30N 35°55' E 014°51'0 0.0
2016-Jun-24 12:27N 35°55' E 014°51'0 0.1
2016-Jun-24 11:30N 35°54' E 014°51'4 1.8
2016-Jun-24 09:17N 35°53' E 014°47'0 0.0
2016-Jun-24 08:23N 35°53' E 014°47'0 0.0
2016-Jun-24 07:32N 35°53' E 014°46'0 0.0
2016-Jun-24 04:26N 35°53' E 014°47'0 0.0
2016-Jun-24 03:32N 35°53' E 014°47'0 0.0
2016-Jun-24 02:32N 35°53' E 014°47'0 0.0
2016-Jun-24 01:32N 35°53' E 014°47'0 0.0
2016-Jun-24 00:32N 35°53' E 014°47'0 0.2
2016-Jun-23 23:33N 35°53' E 014°47'4 2.0
2016-Jun-23 21:31N 35°55' E 014°51'0 0.1
2016-Jun-23 20:28N 35°55' E 014°51'0 0.1
2016-Jun-23 19:31N 35°55' E 014°51'0 0.0
2016-Jun-23 17:28N 35°55' E 014°51'0 0.0
2016-Jun-23 15:31N 35°55' E 014°51'0 0.1
2016-Jun-23 14:31N 35°55' E 014°51'0 0.0
2016-Jun-23 13:31N 35°55' E 014°51'0 0.0
2016-Jun-23 09:32N 35°55' E 014°51'0 0.1
2016-Jun-23 08:32N 35°55' E 014°51'0 0.1
2016-Jun-23 07:32N 35°55' E 014°51'0 0.0
2016-Jun-23 05:32N 35°55' E 014°51'0 0.1
2016-Jun-23 04:29N 35°55' E 014°51'9 8.6
2016-Jun-23 03:24N 35°60' E 014°41'1214.5
2016-Jun-23 02:33N 36°05' E 014°27'1414.0
2016-Jun-23 01:33N 36°10' E 014°11'1414.0
2016-Jun-23 00:33N 36°16' E 013°56'1413.8
2016-Jun-22 23:33N 36°22' E 013°41'1414.1
2016-Jun-22 22:33N 36°29' E 013°25'1414.3
2016-Jun-22 21:33N 36°35' E 013°09'1514.6
2016-Jun-22 20:34N 36°41' E 012°53'1414.5
2016-Jun-22 19:34N 36°47' E 012°36'1514.7
2016-Jun-22 18:31N 36°54' E 012°19'22914.2
2016-Jun-22 02:21N 37°34' E 007°36'31014.0
2016-Jun-21 04:15N 36°54' E 001°10'1013.6
2016-Jun-21 03:33N 36°53' E 000°58'1413.6
2016-Jun-21 02:33N 36°50' E 000°42'1313.2
2016-Jun-21 01:33N 36°47' E 000°26'1313.0
2016-Jun-21 00:34N 36°45' E 000°10'1413.6
2016-Jun-20 23:32N 36°42' W 000°07'1414.1
2016-Jun-20 22:33N 36°40' W 000°24'2914.3
2016-Jun-20 20:31N 36°33' W 000°60'1414.4
2016-Jun-20 19:33N 36°31' W 001°16'1414.4
2016-Jun-20 18:33N 36°28' W 001°34'1614.1
2016-Jun-20 17:23N 36°24' W 001°54'1214.3
2016-Jun-20 16:33N 36°22' W 002°08'1414.0
2016-Jun-20 15:34N 36°20' W 002°25'1413.6
2016-Jun-20 14:34N 36°18' W 002°42'1814.0
2016-Jun-20 13:16N 36°15' W 003°04'1013.6
2016-Jun-20 12:33N 36°14' W 003°16'7814.5
2016-Jun-20 07:11N 36°02' W 004°52'914.9
2016-Jun-20 06:34N 36°00' W 005°03'1515.1
2016-Jun-20 05:33N 36°03' W 005°22'7 5.8
2016-Jun-20 04:25N 36°08' W 005°26'0 0.0
2016-Jun-18 18:33N 36°08' W 005°26'4 4.2
2016-Jun-18 17:34N 36°05' W 005°23'1110.9
2016-Jun-18 16:33N 35°57' W 005°32'1615.8
2016-Jun-18 15:33N 35°54' W 005°52'21311.8
2016-Jun-17 21:29N 37°27' W 009°50'3913.1
2016-Jun-17 18:29N 38°05' W 010°02'1313.5
2016-Jun-17 17:31N 38°18' W 010°05'  
Track history (hours):
 
Tides and Currents Weather Stations Pressure Air Temp Water Temp Dewpoint Dewpoint Depression Visibility Wind Speed Wind Dir Waves Ship Positions

Baltic Marshall

Last reported at 2016-Jun-27 05:22 UTC. Time now 2016-Jun-29 02:08 UTC.
Position N 35°49' E 014°33'.

Length 183 m; draft 6.8 m.

Type: Ship. MMSI: 212118000.

Date/timePositionNaut miles runAvg speedWind from/ knotsBaromVisibWave heightAir tempDewpointWater temp
2016-Jun-27 05:22N 35°49' E 014°33'0 0.4
2016-Jun-27 04:33N 35°49' E 014°33'5 5.2
2016-Jun-27 03:33N 35°49' E 014°39'1110.9
2016-Jun-27 02:33N 35°55' E 014°51'0 0.3
2016-Jun-27 01:33N 35°55' E 014°51'0 0.0
2016-Jun-27 00:33N 35°55' E 014°51'0 0.0
2016-Jun-26 23:33N 35°55' E 014°51'0 0.0
2016-Jun-26 22:33N 35°55' E 014°51'0 0.0
2016-Jun-26 21:33N 35°55' E 014°51'0 0.1
2016-Jun-26 20:33N 35°55' E 014°51'0 0.1
2016-Jun-26 19:33N 35°55' E 014°51'0 0.0
2016-Jun-26 18:33N 35°55' E 014°51'0 0.0
2016-Jun-26 17:33N 35°55' E 014°51'0 0.0
2016-Jun-26 16:33N 35°55' E 014°51'0 0.0
2016-Jun-26 15:33N 35°55' E 014°51'0 0.0
2016-Jun-26 14:33N 35°55' E 014°51'0 0.0
2016-Jun-26 13:33N 35°55' E 014°51'0 0.0
2016-Jun-26 12:33N 35°55' E 014°51'0 0.0
2016-Jun-26 11:33N 35°55' E 014°51'0 0.0
2016-Jun-26 10:33N 35°55' E 014°51'0 0.0
2016-Jun-26 09:33N 35°55' E 014°51'0 0.0
2016-Jun-26 08:33N 35°55' E 014°51'0 0.0
2016-Jun-26 07:33N 35°55' E 014°51'0 0.0
2016-Jun-26 06:33N 35°55' E 014°51'0 0.0
2016-Jun-26 05:33N 35°55' E 014°51'0 0.0
2016-Jun-26 04:33N 35°55' E 014°51'0 0.0
2016-Jun-26 03:33N 35°55' E 014°51'0 0.0
2016-Jun-26 02:33N 35°55' E 014°51'0 0.0
2016-Jun-26 01:30N 35°55' E 014°51'0 0.0
2016-Jun-26 00:30N 35°55' E 014°51'0 0.0
2016-Jun-25 23:30N 35°55' E 014°51'0 0.0
2016-Jun-25 22:33N 35°55' E 014°51'0 0.0
2016-Jun-25 21:30N 35°55' E 014°51'0 0.0
2016-Jun-25 20:33N 35°55' E 014°51'0 0.0
2016-Jun-25 19:33N 35°55' E 014°51'0 0.0
2016-Jun-25 18:33N 35°55' E 014°51'0 0.0
2016-Jun-25 17:30N 35°55' E 014°51'0 0.0
2016-Jun-25 16:33N 35°55' E 014°51'0 0.0
2016-Jun-25 15:33N 35°55' E 014°51'0 0.0
2016-Jun-25 14:33N 35°55' E 014°51'0 0.0
2016-Jun-25 13:33N 35°55' E 014°51'0 0.0
2016-Jun-25 12:33N 35°55' E 014°51'0 0.1
2016-Jun-25 11:30N 35°55' E 014°51'0 0.0
2016-Jun-25 10:27N 35°55' E 014°51'0 0.0
2016-Jun-25 09:33N 35°55' E 014°51'0 0.1
2016-Jun-25 08:33N 35°55' E 014°51'0 0.0
2016-Jun-25 07:27N 35°55' E 014°51'0 0.0
2016-Jun-25 06:33N 35°55' E 014°51'0 0.0
2016-Jun-25 04:33N 35°55' E 014°51'0 0.0
2016-Jun-25 03:33N 35°55' E 014°51'0 0.0
2016-Jun-25 02:33N 35°55' E 014°51'0 0.0
2016-Jun-25 01:33N 35°55' E 014°51'0 0.0
2016-Jun-25 00:33N 35°55' E 014°51'0 0.0
2016-Jun-24 23:33N 35°55' E 014°51'0 0.0
2016-Jun-24 22:33N 35°55' E 014°51'0 0.0
2016-Jun-24 21:33N 35°55' E 014°51'0 0.0
2016-Jun-24 20:21N 35°55' E 014°51'0 0.0
2016-Jun-24 19:33N 35°55' E 014°51'0 0.0
2016-Jun-24 18:33N 35°55' E 014°51'0 0.0
2016-Jun-24 17:30N 35°54' E 014°51'0 0.0
2016-Jun-24 16:30N 35°55' E 014°51'0 0.0
2016-Jun-24 15:33N 35°55' E 014°51'0 0.0
2016-Jun-24 14:33N 35°55' E 014°51'0 0.0
2016-Jun-24 13:30N 35°55' E 014°51'0 0.0
2016-Jun-24 12:27N 35°55' E 014°51'0 0.1
2016-Jun-24 11:30N 35°54' E 014°51'4 1.8
2016-Jun-24 09:17N 35°53' E 014°47'0 0.0
2016-Jun-24 08:23N 35°53' E 014°47'0 0.0
2016-Jun-24 07:32N 35°53' E 014°46'0 0.0
2016-Jun-24 04:26N 35°53' E 014°47'0 0.0
2016-Jun-24 03:32N 35°53' E 014°47'0 0.0
2016-Jun-24 02:32N 35°53' E 014°47'0 0.0
2016-Jun-24 01:32N 35°53' E 014°47'0 0.0
2016-Jun-24 00:32N 35°53' E 014°47'0 0.2
2016-Jun-23 23:33N 35°53' E 014°47'4 2.0
2016-Jun-23 21:31N 35°55' E 014°51'0 0.1
2016-Jun-23 20:28N 35°55' E 014°51'0 0.1
2016-Jun-23 19:31N 35°55' E 014°51'0 0.0
2016-Jun-23 17:28N 35°55' E 014°51'0 0.0
2016-Jun-23 15:31N 35°55' E 014°51'0 0.1
2016-Jun-23 14:31N 35°55' E 014°51'0 0.0
2016-Jun-23 13:31N 35°55' E 014°51'0 0.0
2016-Jun-23 09:32N 35°55' E 014°51'0 0.1
2016-Jun-23 08:32N 35°55' E 014°51'0 0.1
2016-Jun-23 07:32N 35°55' E 014°51'0 0.0
2016-Jun-23 05:32N 35°55' E 014°51'0 0.1
2016-Jun-23 04:29N 35°55' E 014°51'9 8.6
2016-Jun-23 03:24N 35°60' E 014°41'1214.5
2016-Jun-23 02:33N 36°05' E 014°27'1414.0
2016-Jun-23 01:33N 36°10' E 014°11'1414.0
2016-Jun-23 00:33N 36°16' E 013°56'1413.8
2016-Jun-22 23:33N 36°22' E 013°41'1414.1
2016-Jun-22 22:33N 36°29' E 013°25'1414.3
2016-Jun-22 21:33N 36°35' E 013°09'1514.6
2016-Jun-22 20:34N 36°41' E 012°53'1414.5
2016-Jun-22 19:34N 36°47' E 012°36'1514.7
2016-Jun-22 18:31N 36°54' E 012°19'22914.2
2016-Jun-22 02:21N 37°34' E 007°36'31014.0
2016-Jun-21 04:15N 36°54' E 001°10'1013.6
2016-Jun-21 03:33N 36°53' E 000°58'1413.6
2016-Jun-21 02:33N 36°50' E 000°42'1313.2
2016-Jun-21 01:33N 36°47' E 000°26'1313.0
2016-Jun-21 00:34N 36°45' E 000°10'1413.6
2016-Jun-20 23:32N 36°42' W 000°07'1414.1
2016-Jun-20 22:33N 36°40' W 000°24'2914.3
2016-Jun-20 20:31N 36°33' W 000°60'1414.4
2016-Jun-20 19:33N 36°31' W 001°16'1414.4
2016-Jun-20 18:33N 36°28' W 001°34'1614.1
2016-Jun-20 17:23N 36°24' W 001°54'1214.3
2016-Jun-20 16:33N 36°22' W 002°08'1414.0
2016-Jun-20 15:34N 36°20' W 002°25'1413.6
2016-Jun-20 14:34N 36°18' W 002°42'1814.0
2016-Jun-20 13:16N 36°15' W 003°04'1013.6
2016-Jun-20 12:33N 36°14' W 003°16'7814.5
2016-Jun-20 07:11N 36°02' W 004°52'914.9
2016-Jun-20 06:34N 36°00' W 005°03'1515.1
2016-Jun-20 05:33N 36°03' W 005°22'7 5.8
2016-Jun-20 04:25N 36°08' W 005°26'0 0.0
2016-Jun-18 18:33N 36°08' W 005°26'4 4.2
2016-Jun-18 17:34N 36°05' W 005°23'1110.9
2016-Jun-18 16:33N 35°57' W 005°32'1615.8
2016-Jun-18 15:33N 35°54' W 005°52'21311.8
2016-Jun-17 21:29N 37°27' W 009°50'3913.1
2016-Jun-17 18:29N 38°05' W 010°02'1313.5
2016-Jun-17 17:31N 38°18' W 010°05'  

Dump ship's entire track history